sensor_id;sensor_type;location;lat;lon;timestamp;P1;durP1;ratioP1;P2;durP2;ratioP2
73672;SDS011;61972;19.480;-99.240;2022-09-03T00:04:53;5.27;;;1.60;;
73672;SDS011;61972;19.480;-99.240;2022-09-03T00:13:13;6.82;;;1.80;;
73672;SDS011;61972;19.480;-99.240;2022-09-03T00:15:44;4.75;;;2.10;;
73672;SDS011;61972;19.480;-99.240;2022-09-03T00:18:15;5.17;;;1.60;;
73672;SDS011;61972;19.480;-99.240;2022-09-03T00:23:26;7.78;;;1.88;;
73672;SDS011;61972;19.480;-99.240;2022-09-03T00:25:58;6.88;;;1.77;;
73672;SDS011;61972;19.480;-99.240;2022-09-03T00:31:25;4.00;;;1.47;;
73672;SDS011;61972;19.480;-99.240;2022-09-03T00:33:59;6.57;;;2.10;;
73672;SDS011;61972;19.480;-99.240;2022-09-03T00:36:47;7.60;;;2.70;;
73672;SDS011;61972;19.480;-99.240;2022-09-03T00:39:15;8.68;;;2.60;;
73672;SDS011;61972;19.480;-99.240;2022-09-03T00:50:40;6.97;;;2.28;;
73672;SDS011;61972;19.480;-99.240;2022-09-03T01:01:10;6.15;;;2.40;;
73672;SDS011;61972;19.480;-99.240;2022-09-03T01:06:57;7.75;;;2.10;;
73672;SDS011;61972;19.480;-99.240;2022-09-03T01:09:59;8.27;;;2.20;;
73672;SDS011;61972;19.480;-99.240;2022-09-03T01:12:59;5.63;;;2.07;;
73672;SDS011;61972;19.480;-99.240;2022-09-03T01:15:48;3.78;;;1.90;;
73672;SDS011;61972;19.480;-99.240;2022-09-03T01:18:43;5.70;;;2.22;;
73672;SDS011;61972;19.480;-99.240;2022-09-03T01:24:43;3.55;;;2.08;;
73672;SDS011;61972;19.480;-99.240;2022-09-03T01:30:22;3.58;;;2.10;;
73672;SDS011;61972;19.480;-99.240;2022-09-03T01:41:04;8.63;;;2.30;;
73672;SDS011;61972;19.480;-99.240;2022-09-03T01:44:41;4.28;;;2.00;;
73672;SDS011;61972;19.480;-99.240;2022-09-03T01:47:15;4.15;;;2.20;;
73672;SDS011;61972;19.480;-99.240;2022-09-03T01:50:00;4.43;;;2.00;;
73672;SDS011;61972;19.480;-99.240;2022-09-03T01:52:54;4.97;;;2.33;;
73672;SDS011;61972;19.480;-99.240;2022-09-03T01:55:32;4.97;;;2.20;;
73672;SDS011;61972;19.480;-99.240;2022-09-03T01:58:10;5.57;;;2.40;;
73672;SDS011;61972;19.480;-99.240;2022-09-03T02:00:48;5.45;;;2.53;;
73672;SDS011;61972;19.480;-99.240;2022-09-03T02:03:21;8.30;;;2.50;;
73672;SDS011;61972;19.480;-99.240;2022-09-03T02:05:49;5.22;;;2.50;;
73672;SDS011;61972;19.480;-99.240;2022-09-03T02:08:17;5.63;;;2.60;;
73672;SDS011;61972;19.480;-99.240;2022-09-03T02:13:17;4.28;;;2.45;;
73672;SDS011;61972;19.480;-99.240;2022-09-03T02:15:49;6.93;;;2.92;;
73672;SDS011;61972;19.480;-99.240;2022-09-03T02:18:19;3.70;;;2.45;;
73672;SDS011;61972;19.480;-99.240;2022-09-03T02:20:51;6.20;;;2.60;;
73672;SDS011;61972;19.480;-99.240;2022-09-03T02:23:19;4.68;;;2.70;;
73672;SDS011;61972;19.480;-99.240;2022-09-03T02:25:51;6.18;;;3.08;;
73672;SDS011;61972;19.480;-99.240;2022-09-03T02:28:21;6.57;;;3.20;;
73672;SDS011;61972;19.480;-99.240;2022-09-03T02:30:50;7.15;;;3.38;;
73672;SDS011;61972;19.480;-99.240;2022-09-03T02:33:16;5.60;;;3.07;;
73672;SDS011;61972;19.480;-99.240;2022-09-03T02:35:43;6.32;;;3.20;;
73672;SDS011;61972;19.480;-99.240;2022-09-03T02:38:12;6.07;;;3.33;;
73672;SDS011;61972;19.480;-99.240;2022-09-03T02:40:44;8.48;;;3.67;;
73672;SDS011;61972;19.480;-99.240;2022-09-03T02:43:19;7.97;;;3.83;;
73672;SDS011;61972;19.480;-99.240;2022-09-03T02:46:08;6.73;;;3.70;;
73672;SDS011;61972;19.480;-99.240;2022-09-03T02:48:39;8.50;;;4.28;;
73672;SDS011;61972;19.480;-99.240;2022-09-03T02:51:05;6.22;;;4.03;;
73672;SDS011;61972;19.480;-99.240;2022-09-03T02:53:32;7.22;;;4.20;;
73672;SDS011;61972;19.480;-99.240;2022-09-03T02:55:59;6.38;;;4.10;;
73672;SDS011;61972;19.480;-99.240;2022-09-03T02:58:26;8.67;;;4.60;;
73672;SDS011;61972;19.480;-99.240;2022-09-03T03:00:56;6.65;;;4.78;;
73672;SDS011;61972;19.480;-99.240;2022-09-03T03:03:23;7.45;;;4.68;;
73672;SDS011;61972;19.480;-99.240;2022-09-03T03:05:53;6.97;;;4.60;;
73672;SDS011;61972;19.480;-99.240;2022-09-03T03:08:23;6.25;;;4.35;;
73672;SDS011;61972;19.480;-99.240;2022-09-03T03:10:52;7.10;;;4.87;;
73672;SDS011;61972;19.480;-99.240;2022-09-03T03:13:21;8.02;;;5.10;;
73672;SDS011;61972;19.480;-99.240;2022-09-03T03:15:48;8.32;;;5.30;;
73672;SDS011;61972;19.480;-99.240;2022-09-03T03:18:14;9.70;;;5.10;;
73672;SDS011;61972;19.480;-99.240;2022-09-03T03:20:43;7.03;;;4.95;;
73672;SDS011;61972;19.480;-99.240;2022-09-03T03:23:12;9.33;;;5.10;;
73672;SDS011;61972;19.480;-99.240;2022-09-03T03:25:38;6.95;;;5.00;;
73672;SDS011;61972;19.480;-99.240;2022-09-03T03:28:05;8.63;;;5.20;;
73672;SDS011;61972;19.480;-99.240;2022-09-03T03:30:33;6.20;;;5.03;;
73672;SDS011;61972;19.480;-99.240;2022-09-03T03:33:03;6.57;;;4.68;;
73672;SDS011;61972;19.480;-99.240;2022-09-03T03:35:29;7.07;;;5.00;;
73672;SDS011;61972;19.480;-99.240;2022-09-03T03:37:58;7.82;;;5.25;;
73672;SDS011;61972;19.480;-99.240;2022-09-03T03:40:25;6.72;;;5.50;;
73672;SDS011;61972;19.480;-99.240;2022-09-03T03:42:51;6.18;;;4.80;;
73672;SDS011;61972;19.480;-99.240;2022-09-03T03:45:17;7.18;;;4.88;;
73672;SDS011;61972;19.480;-99.240;2022-09-03T03:47:44;8.40;;;5.33;;
73672;SDS011;61972;19.480;-99.240;2022-09-03T03:50:10;7.70;;;5.30;;
73672;SDS011;61972;19.480;-99.240;2022-09-03T03:52:36;6.65;;;5.35;;
73672;SDS011;61972;19.480;-99.240;2022-09-03T03:55:02;11.00;;;5.20;;
73672;SDS011;61972;19.480;-99.240;2022-09-03T03:57:29;8.48;;;4.97;;
73672;SDS011;61972;19.480;-99.240;2022-09-03T03:59:58;7.97;;;5.40;;
73672;SDS011;61972;19.480;-99.240;2022-09-03T04:02:24;6.43;;;5.22;;
73672;SDS011;61972;19.480;-99.240;2022-09-03T04:04:51;7.25;;;5.60;;
73672;SDS011;61972;19.480;-99.240;2022-09-03T04:07:17;7.25;;;5.10;;
73672;SDS011;61972;19.480;-99.240;2022-09-03T04:09:43;10.02;;;5.55;;
73672;SDS011;61972;19.480;-99.240;2022-09-03T04:12:09;8.50;;;5.50;;
73672;SDS011;61972;19.480;-99.240;2022-09-03T04:14:35;8.68;;;5.93;;
73672;SDS011;61972;19.480;-99.240;2022-09-03T04:17:01;8.18;;;5.90;;
73672;SDS011;61972;19.480;-99.240;2022-09-03T04:19:28;9.43;;;5.57;;
73672;SDS011;61972;19.480;-99.240;2022-09-03T04:21:54;8.10;;;5.63;;
73672;SDS011;61972;19.480;-99.240;2022-09-03T04:24:21;7.00;;;5.57;;
73672;SDS011;61972;19.480;-99.240;2022-09-03T04:26:47;11.70;;;5.80;;
73672;SDS011;61972;19.480;-99.240;2022-09-03T04:29:14;8.98;;;5.93;;
73672;SDS011;61972;19.480;-99.240;2022-09-03T04:31:41;8.45;;;6.25;;
73672;SDS011;61972;19.480;-99.240;2022-09-03T04:34:29;10.95;;;6.13;;
73672;SDS011;61972;19.480;-99.240;2022-09-03T04:36:56;9.17;;;6.43;;
73672;SDS011;61972;19.480;-99.240;2022-09-03T04:39:25;7.95;;;5.90;;
73672;SDS011;61972;19.480;-99.240;2022-09-03T04:41:51;7.55;;;5.80;;
73672;SDS011;61972;19.480;-99.240;2022-09-03T04:44:17;9.15;;;6.47;;
73672;SDS011;61972;19.480;-99.240;2022-09-03T04:46:43;8.88;;;6.13;;
73672;SDS011;61972;19.480;-99.240;2022-09-03T04:49:11;9.03;;;5.93;;
73672;SDS011;61972;19.480;-99.240;2022-09-03T04:51:38;8.07;;;6.00;;
73672;SDS011;61972;19.480;-99.240;2022-09-03T04:54:04;8.95;;;6.35;;
73672;SDS011;61972;19.480;-99.240;2022-09-03T04:56:31;12.48;;;5.82;;
73672;SDS011;61972;19.480;-99.240;2022-09-03T04:58:59;13.32;;;6.53;;
73672;SDS011;61972;19.480;-99.240;2022-09-03T05:01:28;11.23;;;5.97;;
73672;SDS011;61972;19.480;-99.240;2022-09-03T05:03:55;9.40;;;5.70;;
73672;SDS011;61972;19.480;-99.240;2022-09-03T05:06:25;9.55;;;6.22;;
73672;SDS011;61972;19.480;-99.240;2022-09-03T05:08:52;10.70;;;6.13;;
73672;SDS011;61972;19.480;-99.240;2022-09-03T05:11:20;8.15;;;5.93;;
73672;SDS011;61972;19.480;-99.240;2022-09-03T05:13:47;8.93;;;5.90;;
73672;SDS011;61972;19.480;-99.240;2022-09-03T05:16:14;8.50;;;5.97;;
73672;SDS011;61972;19.480;-99.240;2022-09-03T05:18:41;8.15;;;5.57;;
73672;SDS011;61972;19.480;-99.240;2022-09-03T05:21:09;7.35;;;6.00;;
73672;SDS011;61972;19.480;-99.240;2022-09-03T05:23:38;7.18;;;5.68;;
73672;SDS011;61972;19.480;-99.240;2022-09-03T05:26:08;11.33;;;5.80;;
73672;SDS011;61972;19.480;-99.240;2022-09-03T05:28:36;8.77;;;5.90;;
73672;SDS011;61972;19.480;-99.240;2022-09-03T05:31:23;9.10;;;5.88;;
73672;SDS011;61972;19.480;-99.240;2022-09-03T05:33:54;11.75;;;6.63;;
73672;SDS011;61972;19.480;-99.240;2022-09-03T05:36:25;9.70;;;6.00;;
73672;SDS011;61972;19.480;-99.240;2022-09-03T05:38:53;10.37;;;6.10;;
73672;SDS011;61972;19.480;-99.240;2022-09-03T05:41:20;8.88;;;6.30;;
73672;SDS011;61972;19.480;-99.240;2022-09-03T05:43:48;9.10;;;6.35;;
73672;SDS011;61972;19.480;-99.240;2022-09-03T05:46:25;11.32;;;6.30;;
73672;SDS011;61972;19.480;-99.240;2022-09-03T05:49:03;10.65;;;6.50;;
73672;SDS011;61972;19.480;-99.240;2022-09-03T05:51:31;9.33;;;7.10;;
73672;SDS011;61972;19.480;-99.240;2022-09-03T05:53:58;9.07;;;7.00;;
73672;SDS011;61972;19.480;-99.240;2022-09-03T05:56:25;7.45;;;6.15;;
73672;SDS011;61972;19.480;-99.240;2022-09-03T05:58:53;8.60;;;6.95;;
73672;SDS011;61972;19.480;-99.240;2022-09-03T06:01:21;8.63;;;6.68;;
73672;SDS011;61972;19.480;-99.240;2022-09-03T06:03:57;8.17;;;6.67;;
73672;SDS011;61972;19.480;-99.240;2022-09-03T06:06:24;11.27;;;6.68;;
73672;SDS011;61972;19.480;-99.240;2022-09-03T06:08:51;21.25;;;6.95;;
73672;SDS011;61972;19.480;-99.240;2022-09-03T06:11:19;8.23;;;6.40;;
73672;SDS011;61972;19.480;-99.240;2022-09-03T06:13:48;11.13;;;6.93;;
73672;SDS011;61972;19.480;-99.240;2022-09-03T06:16:14;11.03;;;7.00;;
73672;SDS011;61972;19.480;-99.240;2022-09-03T06:18:40;8.60;;;6.75;;
73672;SDS011;61972;19.480;-99.240;2022-09-03T06:21:06;9.88;;;7.38;;
73672;SDS011;61972;19.480;-99.240;2022-09-03T06:23:33;15.13;;;7.20;;
73672;SDS011;61972;19.480;-99.240;2022-09-03T06:28:26;9.67;;;7.30;;
73672;SDS011;61972;19.480;-99.240;2022-09-03T06:30:52;10.38;;;7.20;;
73672;SDS011;61972;19.480;-99.240;2022-09-03T06:33:22;8.63;;;6.90;;
73672;SDS011;61972;19.480;-99.240;2022-09-03T06:35:59;8.90;;;7.05;;
73672;SDS011;61972;19.480;-99.240;2022-09-03T06:38:27;11.93;;;7.70;;
73672;SDS011;61972;19.480;-99.240;2022-09-03T06:41:05;10.30;;;7.60;;
73672;SDS011;61972;19.480;-99.240;2022-09-03T06:43:40;9.13;;;7.32;;
73672;SDS011;61972;19.480;-99.240;2022-09-03T06:46:08;10.30;;;7.90;;
73672;SDS011;61972;19.480;-99.240;2022-09-03T06:48:37;10.98;;;7.50;;
73672;SDS011;61972;19.480;-99.240;2022-09-03T06:51:11;8.57;;;7.18;;
73672;SDS011;61972;19.480;-99.240;2022-09-03T06:53:40;10.93;;;7.60;;
73672;SDS011;61972;19.480;-99.240;2022-09-03T06:56:11;10.57;;;7.20;;
73672;SDS011;61972;19.480;-99.240;2022-09-03T06:58:39;8.88;;;7.63;;
73672;SDS011;61972;19.480;-99.240;2022-09-03T07:01:10;10.20;;;7.43;;
73672;SDS011;61972;19.480;-99.240;2022-09-03T07:03:41;9.82;;;7.28;;
73672;SDS011;61972;19.480;-99.240;2022-09-03T07:06:12;11.50;;;7.17;;
73672;SDS011;61972;19.480;-99.240;2022-09-03T07:08:40;9.63;;;7.30;;
73672;SDS011;61972;19.480;-99.240;2022-09-03T07:11:11;10.88;;;7.60;;
73672;SDS011;61972;19.480;-99.240;2022-09-03T07:13:42;8.77;;;7.22;;
73672;SDS011;61972;19.480;-99.240;2022-09-03T07:16:10;8.80;;;6.95;;
73672;SDS011;61972;19.480;-99.240;2022-09-03T07:18:41;10.00;;;7.27;;
73672;SDS011;61972;19.480;-99.240;2022-09-03T07:21:09;9.02;;;7.07;;
73672;SDS011;61972;19.480;-99.240;2022-09-03T07:23:38;9.13;;;6.65;;
73672;SDS011;61972;19.480;-99.240;2022-09-03T07:26:08;8.60;;;6.70;;
73672;SDS011;61972;19.480;-99.240;2022-09-03T07:28:40;9.35;;;7.60;;
73672;SDS011;61972;19.480;-99.240;2022-09-03T07:31:11;8.97;;;6.90;;
73672;SDS011;61972;19.480;-99.240;2022-09-03T07:33:40;9.45;;;7.38;;
73672;SDS011;61972;19.480;-99.240;2022-09-03T07:36:08;8.68;;;6.93;;
73672;SDS011;61972;19.480;-99.240;2022-09-03T07:38:37;8.40;;;7.10;;
73672;SDS011;61972;19.480;-99.240;2022-09-03T07:41:04;7.95;;;6.60;;
73672;SDS011;61972;19.480;-99.240;2022-09-03T07:43:35;8.97;;;7.00;;
73672;SDS011;61972;19.480;-99.240;2022-09-03T07:46:04;10.02;;;7.10;;
73672;SDS011;61972;19.480;-99.240;2022-09-03T07:48:31;9.05;;;7.05;;
73672;SDS011;61972;19.480;-99.240;2022-09-03T07:50:58;8.98;;;6.90;;
73672;SDS011;61972;19.480;-99.240;2022-09-03T07:53:25;9.65;;;7.03;;
73672;SDS011;61972;19.480;-99.240;2022-09-03T07:55:53;10.50;;;7.00;;
73672;SDS011;61972;19.480;-99.240;2022-09-03T07:58:27;8.45;;;6.95;;
73672;SDS011;61972;19.480;-99.240;2022-09-03T08:00:54;9.38;;;7.00;;
73672;SDS011;61972;19.480;-99.240;2022-09-03T08:03:21;8.55;;;6.90;;
73672;SDS011;61972;19.480;-99.240;2022-09-03T08:05:47;8.52;;;6.70;;
73672;SDS011;61972;19.480;-99.240;2022-09-03T08:08:13;8.10;;;6.40;;
73672;SDS011;61972;19.480;-99.240;2022-09-03T08:10:40;8.50;;;6.95;;
73672;SDS011;61972;19.480;-99.240;2022-09-03T08:13:06;8.90;;;6.95;;
73672;SDS011;61972;19.480;-99.240;2022-09-03T08:15:32;8.90;;;6.85;;
73672;SDS011;61972;19.480;-99.240;2022-09-03T08:18:00;8.48;;;6.97;;
73672;SDS011;61972;19.480;-99.240;2022-09-03T08:20:27;9.10;;;6.73;;
73672;SDS011;61972;19.480;-99.240;2022-09-03T08:22:59;8.40;;;6.40;;
73672;SDS011;61972;19.480;-99.240;2022-09-03T08:25:27;9.15;;;6.57;;
73672;SDS011;61972;19.480;-99.240;2022-09-03T08:27:53;8.05;;;6.80;;
73672;SDS011;61972;19.480;-99.240;2022-09-03T08:30:22;7.50;;;6.07;;
73672;SDS011;61972;19.480;-99.240;2022-09-03T08:32:49;9.90;;;6.93;;
73672;SDS011;61972;19.480;-99.240;2022-09-03T08:35:16;8.07;;;6.35;;
73672;SDS011;61972;19.480;-99.240;2022-09-03T08:37:42;8.05;;;6.80;;
73672;SDS011;61972;19.480;-99.240;2022-09-03T08:40:08;8.63;;;6.93;;
73672;SDS011;61972;19.480;-99.240;2022-09-03T08:42:40;8.15;;;6.90;;
73672;SDS011;61972;19.480;-99.240;2022-09-03T08:45:32;7.80;;;6.33;;
73672;SDS011;61972;19.480;-99.240;2022-09-03T08:48:09;8.85;;;6.57;;
73672;SDS011;61972;19.480;-99.240;2022-09-03T08:50:44;8.70;;;6.85;;
73672;SDS011;61972;19.480;-99.240;2022-09-03T08:58:32;7.70;;;6.60;;
73672;SDS011;61972;19.480;-99.240;2022-09-03T09:03:45;8.65;;;6.70;;
73672;SDS011;61972;19.480;-99.240;2022-09-03T09:09:30;8.27;;;6.65;;
73672;SDS011;61972;19.480;-99.240;2022-09-03T09:12:34;10.97;;;6.20;;
73672;SDS011;61972;19.480;-99.240;2022-09-03T09:15:12;9.23;;;6.40;;
73672;SDS011;61972;19.480;-99.240;2022-09-03T09:20:27;8.55;;;6.57;;
73672;SDS011;61972;19.480;-99.240;2022-09-03T09:23:02;8.60;;;7.15;;
73672;SDS011;61972;19.480;-99.240;2022-09-03T09:25:31;8.13;;;6.87;;
73672;SDS011;61972;19.480;-99.240;2022-09-03T09:28:25;10.07;;;6.90;;
73672;SDS011;61972;19.480;-99.240;2022-09-03T09:30:54;9.60;;;7.13;;
73672;SDS011;61972;19.480;-99.240;2022-09-03T09:33:21;10.63;;;6.90;;
73672;SDS011;61972;19.480;-99.240;2022-09-03T09:35:49;10.18;;;7.05;;
73672;SDS011;61972;19.480;-99.240;2022-09-03T09:38:26;9.67;;;7.20;;
73672;SDS011;61972;19.480;-99.240;2022-09-03T09:41:06;8.60;;;6.95;;
73672;SDS011;61972;19.480;-99.240;2022-09-03T09:43:37;9.32;;;7.20;;
73672;SDS011;61972;19.480;-99.240;2022-09-03T09:46:06;8.90;;;7.07;;
73672;SDS011;61972;19.480;-99.240;2022-09-03T09:48:53;8.63;;;6.90;;
73672;SDS011;61972;19.480;-99.240;2022-09-03T09:56:44;8.02;;;6.70;;
73672;SDS011;61972;19.480;-99.240;2022-09-03T09:59:12;11.30;;;6.95;;
73672;SDS011;61972;19.480;-99.240;2022-09-03T10:01:43;9.52;;;7.22;;
73672;SDS011;61972;19.480;-99.240;2022-09-03T10:04:30;7.80;;;6.27;;
73672;SDS011;61972;19.480;-99.240;2022-09-03T10:06:58;10.07;;;7.15;;
73672;SDS011;61972;19.480;-99.240;2022-09-03T10:09:40;9.02;;;6.95;;
73672;SDS011;61972;19.480;-99.240;2022-09-03T10:12:27;8.57;;;6.70;;
73672;SDS011;61972;19.480;-99.240;2022-09-03T10:20:38;9.75;;;7.30;;
73672;SDS011;61972;19.480;-99.240;2022-09-03T10:23:19;7.65;;;6.05;;
73672;SDS011;61972;19.480;-99.240;2022-09-03T10:28:41;7.70;;;6.50;;
73672;SDS011;61972;19.480;-99.240;2022-09-03T10:36:55;7.55;;;6.05;;
73672;SDS011;61972;19.480;-99.240;2022-09-03T10:39:46;8.35;;;6.70;;
73672;SDS011;61972;19.480;-99.240;2022-09-03T10:48:10;9.60;;;6.80;;
73672;SDS011;61972;19.480;-99.240;2022-09-03T10:51:04;9.68;;;7.00;;
73672;SDS011;61972;19.480;-99.240;2022-09-03T10:56:18;7.95;;;6.95;;
73672;SDS011;61972;19.480;-99.240;2022-09-03T11:07:13;9.98;;;7.80;;
73672;SDS011;61972;19.480;-99.240;2022-09-03T11:12:34;8.93;;;7.20;;
73672;SDS011;61972;19.480;-99.240;2022-09-03T11:17:39;9.48;;;7.63;;
73672;SDS011;61972;19.480;-99.240;2022-09-03T11:20:26;8.80;;;6.63;;
73672;SDS011;61972;19.480;-99.240;2022-09-03T11:22:53;9.10;;;7.38;;
73672;SDS011;61972;19.480;-99.240;2022-09-03T11:25:30;8.70;;;7.53;;
73672;SDS011;61972;19.480;-99.240;2022-09-03T11:30:48;9.40;;;7.65;;
73672;SDS011;61972;19.480;-99.240;2022-09-03T11:33:37;9.15;;;7.15;;
73672;SDS011;61972;19.480;-99.240;2022-09-03T11:36:07;10.00;;;7.40;;
73672;SDS011;61972;19.480;-99.240;2022-09-03T11:38:33;11.47;;;7.70;;
73672;SDS011;61972;19.480;-99.240;2022-09-03T11:43:36;10.27;;;7.68;;
73672;SDS011;61972;19.480;-99.240;2022-09-03T11:46:08;9.50;;;7.07;;
73672;SDS011;61972;19.480;-99.240;2022-09-03T11:48:51;9.07;;;7.13;;
73672;SDS011;61972;19.480;-99.240;2022-09-03T11:51:32;9.83;;;7.73;;
73672;SDS011;61972;19.480;-99.240;2022-09-03T11:54:06;9.65;;;7.60;;
73672;SDS011;61972;19.480;-99.240;2022-09-03T11:56:45;10.63;;;7.80;;
73672;SDS011;61972;19.480;-99.240;2022-09-03T11:59:17;8.55;;;6.63;;
73672;SDS011;61972;19.480;-99.240;2022-09-03T12:12:43;8.60;;;7.10;;
73672;SDS011;61972;19.480;-99.240;2022-09-03T12:15:33;8.25;;;6.88;;
73672;SDS011;61972;19.480;-99.240;2022-09-03T12:18:05;9.50;;;7.70;;
73672;SDS011;61972;19.480;-99.240;2022-09-03T12:20:46;10.10;;;7.57;;
73672;SDS011;61972;19.480;-99.240;2022-09-03T12:23:34;10.57;;;7.40;;
73672;SDS011;61972;19.480;-99.240;2022-09-03T12:26:08;10.20;;;7.40;;
73672;SDS011;61972;19.480;-99.240;2022-09-03T12:28:39;9.35;;;7.30;;
73672;SDS011;61972;19.480;-99.240;2022-09-03T12:31:18;8.97;;;7.03;;
73672;SDS011;61972;19.480;-99.240;2022-09-03T12:33:47;11.23;;;7.70;;
73672;SDS011;61972;19.480;-99.240;2022-09-03T12:36:18;8.27;;;6.93;;
73672;SDS011;61972;19.480;-99.240;2022-09-03T12:38:48;8.85;;;6.88;;
73672;SDS011;61972;19.480;-99.240;2022-09-03T12:41:26;9.27;;;6.72;;
73672;SDS011;61972;19.480;-99.240;2022-09-03T12:43:54;8.57;;;6.47;;
73672;SDS011;61972;19.480;-99.240;2022-09-03T12:46:26;8.68;;;6.25;;
73672;SDS011;61972;19.480;-99.240;2022-09-03T12:48:58;8.38;;;6.50;;
73672;SDS011;61972;19.480;-99.240;2022-09-03T12:51:30;8.32;;;6.65;;
73672;SDS011;61972;19.480;-99.240;2022-09-03T12:54:02;7.50;;;5.88;;
73672;SDS011;61972;19.480;-99.240;2022-09-03T12:56:32;9.70;;;6.67;;
73672;SDS011;61972;19.480;-99.240;2022-09-03T12:59:04;8.13;;;6.13;;
73672;SDS011;61972;19.480;-99.240;2022-09-03T13:01:42;9.25;;;6.22;;
73672;SDS011;61972;19.480;-99.240;2022-09-03T13:04:27;8.10;;;6.28;;
73672;SDS011;61972;19.480;-99.240;2022-09-03T13:09:43;7.83;;;5.83;;
73672;SDS011;61972;19.480;-99.240;2022-09-03T13:12:28;7.60;;;6.15;;
73672;SDS011;61972;19.480;-99.240;2022-09-03T13:15:04;8.32;;;6.20;;
73672;SDS011;61972;19.480;-99.240;2022-09-03T13:31:08;8.50;;;6.28;;
73672;SDS011;61972;19.480;-99.240;2022-09-03T13:33:54;7.75;;;6.07;;
73672;SDS011;61972;19.480;-99.240;2022-09-03T13:36:45;7.30;;;5.70;;
73672;SDS011;61972;19.480;-99.240;2022-09-03T13:40:02;7.53;;;5.72;;
73672;SDS011;61972;19.480;-99.240;2022-09-03T13:42:44;7.97;;;5.80;;
73672;SDS011;61972;19.480;-99.240;2022-09-03T13:45:30;8.55;;;5.65;;
73672;SDS011;61972;19.480;-99.240;2022-09-03T13:59:33;9.68;;;5.97;;
73672;SDS011;61972;19.480;-99.240;2022-09-03T14:22:20;7.50;;;5.88;;
73672;SDS011;61972;19.480;-99.240;2022-09-03T14:24:51;9.30;;;5.75;;
73672;SDS011;61972;19.480;-99.240;2022-09-03T14:27:26;7.65;;;5.72;;
73672;SDS011;61972;19.480;-99.240;2022-09-03T14:29:57;8.35;;;5.88;;
73672;SDS011;61972;19.480;-99.240;2022-09-03T14:38:01;10.00;;;6.05;;
73672;SDS011;61972;19.480;-99.240;2022-09-03T14:49:07;10.32;;;6.22;;
73672;SDS011;61972;19.480;-99.240;2022-09-03T15:07:51;12.27;;;5.97;;
73672;SDS011;61972;19.480;-99.240;2022-09-03T15:13:15;10.23;;;5.27;;
73672;SDS011;61972;19.480;-99.240;2022-09-03T15:18:49;11.93;;;5.60;;
73672;SDS011;61972;19.480;-99.240;2022-09-03T15:26:30;7.40;;;4.70;;
73672;SDS011;61972;19.480;-99.240;2022-09-03T15:29:26;10.32;;;4.95;;
73672;SDS011;61972;19.480;-99.240;2022-09-03T15:32:05;8.35;;;5.20;;
73672;SDS011;61972;19.480;-99.240;2022-09-03T15:38:02;8.07;;;4.95;;
73672;SDS011;61972;19.480;-99.240;2022-09-03T15:46:05;9.55;;;5.50;;
73672;SDS011;61972;19.480;-99.240;2022-09-03T15:57:39;12.30;;;5.55;;
73672;SDS011;61972;19.480;-99.240;2022-09-03T16:03:46;9.10;;;5.40;;
73672;SDS011;61972;19.480;-99.240;2022-09-03T16:06:26;8.70;;;5.18;;
73672;SDS011;61972;19.480;-99.240;2022-09-03T16:14:49;90.65;;;23.05;;
73672;SDS011;61972;19.480;-99.240;2022-09-03T16:19:56;46.38;;;13.32;;
73672;SDS011;61972;19.480;-99.240;2022-09-03T16:22:55;44.47;;;12.70;;
73672;SDS011;61972;19.480;-99.240;2022-09-03T16:25:47;26.85;;;9.68;;
73672;SDS011;61972;19.480;-99.240;2022-09-03T16:28:27;22.00;;;8.82;;
73672;SDS011;61972;19.480;-99.240;2022-09-03T16:30:58;17.20;;;8.10;;
73672;SDS011;61972;19.480;-99.240;2022-09-03T16:33:56;16.02;;;7.15;;
73672;SDS011;61972;19.480;-99.240;2022-09-03T16:39:31;14.05;;;7.13;;
73672;SDS011;61972;19.480;-99.240;2022-09-03T16:47:55;11.40;;;6.35;;
73672;SDS011;61972;19.480;-99.240;2022-09-03T16:58:47;12.48;;;6.97;;
73672;SDS011;61972;19.480;-99.240;2022-09-03T17:12:42;11.13;;;5.57;;
73672;SDS011;61972;19.480;-99.240;2022-09-03T17:21:08;9.40;;;4.40;;
73672;SDS011;61972;19.480;-99.240;2022-09-03T17:24:08;12.20;;;4.53;;
73672;SDS011;61972;19.480;-99.240;2022-09-03T17:27:00;7.78;;;4.28;;
73672;SDS011;61972;19.480;-99.240;2022-09-03T17:30:01;9.82;;;3.88;;
73672;SDS011;61972;19.480;-99.240;2022-09-03T17:41:00;8.57;;;4.40;;
73672;SDS011;61972;19.480;-99.240;2022-09-03T17:49:32;7.75;;;3.70;;
73672;SDS011;61972;19.480;-99.240;2022-09-03T17:54:58;12.90;;;4.00;;
73672;SDS011;61972;19.480;-99.240;2022-09-03T17:57:46;7.18;;;3.53;;
73672;SDS011;61972;19.480;-99.240;2022-09-03T18:07:05;9.05;;;3.10;;
73672;SDS011;61972;19.480;-99.240;2022-09-03T18:14:25;6.30;;;2.53;;
73672;SDS011;61972;19.480;-99.240;2022-09-03T18:17:02;6.45;;;2.80;;
73672;SDS011;61972;19.480;-99.240;2022-09-03T18:19:36;7.20;;;3.47;;
73672;SDS011;61972;19.480;-99.240;2022-09-03T18:25:41;7.00;;;3.22;;
73672;SDS011;61972;19.480;-99.240;2022-09-03T18:28:43;4.80;;;2.70;;
73672;SDS011;61972;19.480;-99.240;2022-09-03T18:31:54;4.50;;;2.40;;
73672;SDS011;61972;19.480;-99.240;2022-09-03T18:34:38;6.78;;;2.60;;
73672;SDS011;61972;19.480;-99.240;2022-09-03T18:37:26;3.83;;;2.22;;
73672;SDS011;61972;19.480;-99.240;2022-09-03T18:40:22;5.35;;;2.80;;
73672;SDS011;61972;19.480;-99.240;2022-09-03T18:46:31;5.18;;;2.70;;
73672;SDS011;61972;19.480;-99.240;2022-09-03T18:49:26;7.10;;;2.50;;
73672;SDS011;61972;19.480;-99.240;2022-09-03T18:52:26;9.18;;;2.90;;
73672;SDS011;61972;19.480;-99.240;2022-09-03T18:55:42;12.75;;;2.80;;
73672;SDS011;61972;19.480;-99.240;2022-09-03T19:02:11;6.10;;;2.65;;
73672;SDS011;61972;19.480;-99.240;2022-09-03T19:05:22;8.05;;;2.85;;
73672;SDS011;61972;19.480;-99.240;2022-09-03T19:13:52;5.77;;;2.67;;
73672;SDS011;61972;19.480;-99.240;2022-09-03T19:19:55;6.28;;;2.67;;
73672;SDS011;61972;19.480;-99.240;2022-09-03T19:23:04;5.63;;;2.15;;
73672;SDS011;61972;19.480;-99.240;2022-09-03T19:25:49;6.15;;;2.08;;
73672;SDS011;61972;19.480;-99.240;2022-09-03T19:28:39;11.57;;;2.10;;
73672;SDS011;61972;19.480;-99.240;2022-09-03T19:31:46;7.55;;;1.70;;
73672;SDS011;61972;19.480;-99.240;2022-09-03T19:40:58;7.25;;;1.20;;
73672;SDS011;61972;19.480;-99.240;2022-09-03T19:47:01;4.47;;;1.50;;
73672;SDS011;61972;19.480;-99.240;2022-09-03T19:53:31;5.07;;;1.45;;
73672;SDS011;61972;19.480;-99.240;2022-09-03T19:55:54;3.90;;;1.77;;
73672;SDS011;61972;19.480;-99.240;2022-09-03T19:59:01;4.43;;;1.40;;
73672;SDS011;61972;19.480;-99.240;2022-09-03T20:01:49;3.42;;;1.42;;
73672;SDS011;61972;19.480;-99.240;2022-09-03T20:04:43;2.90;;;1.25;;
73672;SDS011;61972;19.480;-99.240;2022-09-03T20:07:34;4.57;;;1.50;;
73672;SDS011;61972;19.480;-99.240;2022-09-03T20:10:21;3.13;;;1.20;;
73672;SDS011;61972;19.480;-99.240;2022-09-03T20:13:04;2.20;;;1.00;;
73672;SDS011;61972;19.480;-99.240;2022-09-03T20:21:24;3.53;;;1.13;;
73672;SDS011;61972;19.480;-99.240;2022-09-03T20:24:12;5.32;;;1.80;;
73672;SDS011;61972;19.480;-99.240;2022-09-03T20:27:03;2.80;;;1.37;;
73672;SDS011;61972;19.480;-99.240;2022-09-03T20:46:12;5.90;;;1.70;;
73672;SDS011;61972;19.480;-99.240;2022-09-03T20:51:48;3.33;;;1.25;;
73672;SDS011;61972;19.480;-99.240;2022-09-03T20:54:27;4.23;;;1.60;;
73672;SDS011;61972;19.480;-99.240;2022-09-03T20:57:15;4.05;;;1.40;;
73672;SDS011;61972;19.480;-99.240;2022-09-03T21:00:05;3.15;;;1.50;;
73672;SDS011;61972;19.480;-99.240;2022-09-03T21:03:13;2.83;;;1.50;;
73672;SDS011;61972;19.480;-99.240;2022-09-03T21:11:13;6.40;;;1.50;;
73672;SDS011;61972;19.480;-99.240;2022-09-03T21:13:49;3.65;;;1.60;;
73672;SDS011;61972;19.480;-99.240;2022-09-03T21:21:46;2.07;;;1.33;;